sensor_id;sensor_type;location;lat;lon;timestamp;P1;durP1;ratioP1;P2;durP2;ratioP2
12585;SDS011;6358;50.760;0.282;2024-02-15T00:00:36;3.53;;;1.40;;
12585;SDS011;6358;50.760;0.282;2024-02-15T00:03:03;2.23;;;1.40;;
12585;SDS011;6358;50.760;0.282;2024-02-15T00:05:32;2.63;;;1.40;;
12585;SDS011;6358;50.760;0.282;2024-02-15T00:08:01;2.33;;;1.20;;
12585;SDS011;6358;50.760;0.282;2024-02-15T00:10:27;2.80;;;1.50;;
12585;SDS011;6358;50.760;0.282;2024-02-15T00:12:53;3.30;;;1.37;;
12585;SDS011;6358;50.760;0.282;2024-02-15T00:15:20;2.67;;;1.37;;
12585;SDS011;6358;50.760;0.282;2024-02-15T00:17:46;2.50;;;1.30;;
12585;SDS011;6358;50.760;0.282;2024-02-15T00:20:12;2.27;;;1.40;;
12585;SDS011;6358;50.760;0.282;2024-02-15T00:22:39;1.70;;;1.10;;
12585;SDS011;6358;50.760;0.282;2024-02-15T00:25:07;4.03;;;1.53;;
12585;SDS011;6358;50.760;0.282;2024-02-15T00:27:34;4.37;;;1.70;;
12585;SDS011;6358;50.760;0.282;2024-02-15T00:30:00;2.53;;;1.30;;
12585;SDS011;6358;50.760;0.282;2024-02-15T00:32:26;2.20;;;1.20;;
12585;SDS011;6358;50.760;0.282;2024-02-15T00:34:53;2.90;;;1.27;;
12585;SDS011;6358;50.760;0.282;2024-02-15T00:37:19;1.37;;;1.20;;
12585;SDS011;6358;50.760;0.282;2024-02-15T00:39:45;2.43;;;1.40;;
12585;SDS011;6358;50.760;0.282;2024-02-15T00:42:11;3.93;;;1.40;;
12585;SDS011;6358;50.760;0.282;2024-02-15T00:44:38;3.47;;;1.33;;
12585;SDS011;6358;50.760;0.282;2024-02-15T00:47:04;2.47;;;1.30;;
12585;SDS011;6358;50.760;0.282;2024-02-15T00:49:31;3.17;;;1.67;;
12585;SDS011;6358;50.760;0.282;2024-02-15T00:51:57;1.77;;;1.33;;
12585;SDS011;6358;50.760;0.282;2024-02-15T00:54:23;1.63;;;1.37;;
12585;SDS011;6358;50.760;0.282;2024-02-15T00:56:51;2.00;;;1.23;;
12585;SDS011;6358;50.760;0.282;2024-02-15T00:59:17;2.20;;;1.20;;
12585;SDS011;6358;50.760;0.282;2024-02-15T01:01:43;2.90;;;1.60;;
12585;SDS011;6358;50.760;0.282;2024-02-15T01:04:11;2.30;;;1.47;;
12585;SDS011;6358;50.760;0.282;2024-02-15T01:06:37;2.00;;;1.20;;
12585;SDS011;6358;50.760;0.282;2024-02-15T01:09:03;2.23;;;1.33;;
12585;SDS011;6358;50.760;0.282;2024-02-15T01:11:30;1.93;;;1.37;;
12585;SDS011;6358;50.760;0.282;2024-02-15T01:14:00;3.67;;;1.37;;
12585;SDS011;6358;50.760;0.282;2024-02-15T01:16:26;2.77;;;1.40;;
12585;SDS011;6358;50.760;0.282;2024-02-15T01:18:53;2.57;;;1.50;;
12585;SDS011;6358;50.760;0.282;2024-02-15T01:21:20;2.20;;;1.30;;
12585;SDS011;6358;50.760;0.282;2024-02-15T01:23:47;2.00;;;1.40;;
12585;SDS011;6358;50.760;0.282;2024-02-15T01:26:13;3.63;;;1.30;;
12585;SDS011;6358;50.760;0.282;2024-02-15T01:28:39;4.27;;;1.57;;
12585;SDS011;6358;50.760;0.282;2024-02-15T01:31:09;1.83;;;1.33;;
12585;SDS011;6358;50.760;0.282;2024-02-15T01:33:36;2.17;;;1.40;;
12585;SDS011;6358;50.760;0.282;2024-02-15T01:36:03;2.80;;;1.27;;
12585;SDS011;6358;50.760;0.282;2024-02-15T01:38:29;2.87;;;1.43;;
12585;SDS011;6358;50.760;0.282;2024-02-15T01:40:55;2.63;;;1.60;;
12585;SDS011;6358;50.760;0.282;2024-02-15T01:43:21;1.83;;;1.00;;
12585;SDS011;6358;50.760;0.282;2024-02-15T01:45:47;1.63;;;1.33;;
12585;SDS011;6358;50.760;0.282;2024-02-15T01:48:16;1.63;;;1.40;;
12585;SDS011;6358;50.760;0.282;2024-02-15T01:50:42;3.53;;;1.47;;
12585;SDS011;6358;50.760;0.282;2024-02-15T01:53:09;2.90;;;1.50;;
12585;SDS011;6358;50.760;0.282;2024-02-15T01:55:35;2.80;;;1.40;;
12585;SDS011;6358;50.760;0.282;2024-02-15T01:58:04;1.93;;;1.30;;
12585;SDS011;6358;50.760;0.282;2024-02-15T02:00:30;1.60;;;1.20;;
12585;SDS011;6358;50.760;0.282;2024-02-15T02:02:57;2.03;;;1.40;;
12585;SDS011;6358;50.760;0.282;2024-02-15T02:05:27;2.00;;;1.50;;
12585;SDS011;6358;50.760;0.282;2024-02-15T02:07:57;2.67;;;1.40;;
12585;SDS011;6358;50.760;0.282;2024-02-15T02:10:26;1.90;;;1.17;;
12585;SDS011;6358;50.760;0.282;2024-02-15T02:12:57;2.20;;;1.30;;
12585;SDS011;6358;50.760;0.282;2024-02-15T02:15:23;4.30;;;1.53;;
12585;SDS011;6358;50.760;0.282;2024-02-15T02:17:49;4.13;;;1.63;;
12585;SDS011;6358;50.760;0.282;2024-02-15T02:20:19;1.80;;;1.13;;
12585;SDS011;6358;50.760;0.282;2024-02-15T02:22:46;1.60;;;1.47;;
12585;SDS011;6358;50.760;0.282;2024-02-15T02:25:13;1.63;;;1.27;;
12585;SDS011;6358;50.760;0.282;2024-02-15T02:27:39;1.63;;;1.30;;
12585;SDS011;6358;50.760;0.282;2024-02-15T02:30:11;2.67;;;1.40;;
12585;SDS011;6358;50.760;0.282;2024-02-15T02:32:40;1.80;;;1.10;;
12585;SDS011;6358;50.760;0.282;2024-02-15T02:35:06;2.33;;;1.27;;
12585;SDS011;6358;50.760;0.282;2024-02-15T02:37:37;3.90;;;1.30;;
12585;SDS011;6358;50.760;0.282;2024-02-15T02:40:04;1.63;;;1.30;;
12585;SDS011;6358;50.760;0.282;2024-02-15T02:42:32;3.60;;;1.40;;
12585;SDS011;6358;50.760;0.282;2024-02-15T02:44:58;1.63;;;1.17;;
12585;SDS011;6358;50.760;0.282;2024-02-15T02:47:24;2.20;;;1.30;;
12585;SDS011;6358;50.760;0.282;2024-02-15T02:49:50;1.30;;;1.20;;
12585;SDS011;6358;50.760;0.282;2024-02-15T02:52:16;2.47;;;1.40;;
12585;SDS011;6358;50.760;0.282;2024-02-15T02:54:43;2.70;;;1.47;;
12585;SDS011;6358;50.760;0.282;2024-02-15T02:57:09;3.63;;;1.40;;
12585;SDS011;6358;50.760;0.282;2024-02-15T02:59:35;2.83;;;1.40;;
12585;SDS011;6358;50.760;0.282;2024-02-15T03:02:05;1.47;;;1.30;;
12585;SDS011;6358;50.760;0.282;2024-02-15T03:04:33;1.93;;;1.10;;
12585;SDS011;6358;50.760;0.282;2024-02-15T03:06:59;2.60;;;1.80;;
12585;SDS011;6358;50.760;0.282;2024-02-15T03:09:25;1.80;;;1.50;;
12585;SDS011;6358;50.760;0.282;2024-02-15T03:11:54;1.57;;;1.30;;
12585;SDS011;6358;50.760;0.282;2024-02-15T03:14:20;2.57;;;1.60;;
12585;SDS011;6358;50.760;0.282;2024-02-15T03:16:47;2.47;;;1.50;;
12585;SDS011;6358;50.760;0.282;2024-02-15T03:19:13;1.73;;;1.30;;
12585;SDS011;6358;50.760;0.282;2024-02-15T03:21:39;2.10;;;1.30;;
12585;SDS011;6358;50.760;0.282;2024-02-15T03:24:06;2.30;;;1.40;;
12585;SDS011;6358;50.760;0.282;2024-02-15T03:26:32;1.90;;;1.07;;
12585;SDS011;6358;50.760;0.282;2024-02-15T03:29:05;2.60;;;1.50;;
12585;SDS011;6358;50.760;0.282;2024-02-15T03:31:35;2.40;;;1.40;;
12585;SDS011;6358;50.760;0.282;2024-02-15T03:34:03;2.17;;;1.37;;
12585;SDS011;6358;50.760;0.282;2024-02-15T03:36:29;2.50;;;1.50;;
12585;SDS011;6358;50.760;0.282;2024-02-15T03:38:55;2.13;;;1.07;;
12585;SDS011;6358;50.760;0.282;2024-02-15T03:41:21;3.13;;;1.50;;
12585;SDS011;6358;50.760;0.282;2024-02-15T03:43:47;1.83;;;1.47;;
12585;SDS011;6358;50.760;0.282;2024-02-15T03:46:14;3.30;;;1.37;;
12585;SDS011;6358;50.760;0.282;2024-02-15T03:48:43;2.40;;;1.50;;
12585;SDS011;6358;50.760;0.282;2024-02-15T03:51:09;2.60;;;1.40;;
12585;SDS011;6358;50.760;0.282;2024-02-15T03:53:35;1.57;;;1.47;;
12585;SDS011;6358;50.760;0.282;2024-02-15T03:56:03;2.43;;;1.30;;
12585;SDS011;6358;50.760;0.282;2024-02-15T03:58:29;2.60;;;1.37;;
12585;SDS011;6358;50.760;0.282;2024-02-15T04:00:59;2.90;;;1.50;;
12585;SDS011;6358;50.760;0.282;2024-02-15T04:03:25;2.13;;;1.30;;
12585;SDS011;6358;50.760;0.282;2024-02-15T04:05:51;1.67;;;1.20;;
12585;SDS011;6358;50.760;0.282;2024-02-15T04:08:18;2.20;;;1.30;;
12585;SDS011;6358;50.760;0.282;2024-02-15T04:10:44;1.87;;;1.30;;
12585;SDS011;6358;50.760;0.282;2024-02-15T04:13:11;2.07;;;1.30;;
12585;SDS011;6358;50.760;0.282;2024-02-15T04:15:37;2.13;;;1.20;;
12585;SDS011;6358;50.760;0.282;2024-02-15T04:18:03;1.83;;;1.20;;
12585;SDS011;6358;50.760;0.282;2024-02-15T04:20:30;1.80;;;1.33;;
12585;SDS011;6358;50.760;0.282;2024-02-15T04:22:56;2.10;;;1.40;;
12585;SDS011;6358;50.760;0.282;2024-02-15T04:25:24;3.00;;;1.57;;
12585;SDS011;6358;50.760;0.282;2024-02-15T04:27:52;2.17;;;1.40;;
12585;SDS011;6358;50.760;0.282;2024-02-15T04:30:19;2.13;;;1.43;;
12585;SDS011;6358;50.760;0.282;2024-02-15T04:32:47;1.43;;;1.33;;
12585;SDS011;6358;50.760;0.282;2024-02-15T04:35:14;2.37;;;1.60;;
12585;SDS011;6358;50.760;0.282;2024-02-15T04:37:40;2.63;;;1.47;;
12585;SDS011;6358;50.760;0.282;2024-02-15T04:40:06;1.70;;;1.30;;
12585;SDS011;6358;50.760;0.282;2024-02-15T04:42:36;2.17;;;1.40;;
12585;SDS011;6358;50.760;0.282;2024-02-15T04:45:04;1.30;;;1.20;;
12585;SDS011;6358;50.760;0.282;2024-02-15T04:47:33;3.27;;;1.67;;
12585;SDS011;6358;50.760;0.282;2024-02-15T04:50:00;1.70;;;1.20;;
12585;SDS011;6358;50.760;0.282;2024-02-15T04:52:27;2.33;;;1.40;;
12585;SDS011;6358;50.760;0.282;2024-02-15T04:54:54;2.10;;;1.40;;
12585;SDS011;6358;50.760;0.282;2024-02-15T04:57:23;3.77;;;1.57;;
12585;SDS011;6358;50.760;0.282;2024-02-15T04:59:50;4.30;;;1.67;;
12585;SDS011;6358;50.760;0.282;2024-02-15T05:02:17;2.47;;;1.43;;
12585;SDS011;6358;50.760;0.282;2024-02-15T05:04:44;2.13;;;1.20;;
12585;SDS011;6358;50.760;0.282;2024-02-15T05:07:11;2.67;;;1.50;;
12585;SDS011;6358;50.760;0.282;2024-02-15T05:09:40;2.73;;;1.50;;
12585;SDS011;6358;50.760;0.282;2024-02-15T05:12:06;3.07;;;1.60;;
12585;SDS011;6358;50.760;0.282;2024-02-15T05:14:32;3.30;;;1.50;;
12585;SDS011;6358;50.760;0.282;2024-02-15T05:17:01;2.07;;;1.50;;
12585;SDS011;6358;50.760;0.282;2024-02-15T05:19:27;1.90;;;1.10;;
12585;SDS011;6358;50.760;0.282;2024-02-15T05:21:55;2.03;;;1.47;;
12585;SDS011;6358;50.760;0.282;2024-02-15T05:24:21;3.03;;;1.57;;
12585;SDS011;6358;50.760;0.282;2024-02-15T05:26:47;2.53;;;1.40;;
12585;SDS011;6358;50.760;0.282;2024-02-15T05:29:14;3.33;;;1.70;;
12585;SDS011;6358;50.760;0.282;2024-02-15T05:31:40;1.80;;;1.33;;
12585;SDS011;6358;50.760;0.282;2024-02-15T05:34:07;2.20;;;1.50;;
12585;SDS011;6358;50.760;0.282;2024-02-15T05:36:33;2.70;;;1.57;;
12585;SDS011;6358;50.760;0.282;2024-02-15T05:38:59;2.20;;;1.43;;
12585;SDS011;6358;50.760;0.282;2024-02-15T05:41:27;2.60;;;1.30;;
12585;SDS011;6358;50.760;0.282;2024-02-15T05:43:54;2.13;;;1.43;;
12585;SDS011;6358;50.760;0.282;2024-02-15T05:46:23;2.73;;;1.57;;
12585;SDS011;6358;50.760;0.282;2024-02-15T05:48:49;2.07;;;1.30;;
12585;SDS011;6358;50.760;0.282;2024-02-15T05:51:16;1.80;;;1.40;;
12585;SDS011;6358;50.760;0.282;2024-02-15T05:53:42;2.37;;;1.50;;
12585;SDS011;6358;50.760;0.282;2024-02-15T05:56:09;2.63;;;1.50;;
12585;SDS011;6358;50.760;0.282;2024-02-15T05:58:36;2.20;;;1.50;;
12585;SDS011;6358;50.760;0.282;2024-02-15T06:01:03;2.77;;;1.37;;
12585;SDS011;6358;50.760;0.282;2024-02-15T06:03:37;2.13;;;1.40;;
12585;SDS011;6358;50.760;0.282;2024-02-15T06:06:05;2.87;;;1.60;;
12585;SDS011;6358;50.760;0.282;2024-02-15T06:08:35;2.70;;;1.50;;
12585;SDS011;6358;50.760;0.282;2024-02-15T06:11:02;2.27;;;1.33;;
12585;SDS011;6358;50.760;0.282;2024-02-15T06:13:29;4.07;;;1.70;;
12585;SDS011;6358;50.760;0.282;2024-02-15T06:15:55;3.47;;;1.50;;
12585;SDS011;6358;50.760;0.282;2024-02-15T06:18:22;2.63;;;1.30;;
12585;SDS011;6358;50.760;0.282;2024-02-15T06:20:50;2.33;;;1.50;;
12585;SDS011;6358;50.760;0.282;2024-02-15T06:23:16;2.13;;;1.40;;
12585;SDS011;6358;50.760;0.282;2024-02-15T06:25:43;2.33;;;1.40;;
12585;SDS011;6358;50.760;0.282;2024-02-15T06:28:09;1.83;;;1.27;;
12585;SDS011;6358;50.760;0.282;2024-02-15T06:30:47;1.73;;;1.40;;
12585;SDS011;6358;50.760;0.282;2024-02-15T06:33:32;1.97;;;1.30;;
12585;SDS011;6358;50.760;0.282;2024-02-15T06:36:17;1.47;;;1.30;;
12585;SDS011;6358;50.760;0.282;2024-02-15T06:39:02;1.70;;;1.33;;
12585;SDS011;6358;50.760;0.282;2024-02-15T06:41:47;1.93;;;1.33;;
12585;SDS011;6358;50.760;0.282;2024-02-15T06:44:13;2.07;;;1.33;;
12585;SDS011;6358;50.760;0.282;2024-02-15T06:46:39;1.93;;;1.33;;
12585;SDS011;6358;50.760;0.282;2024-02-15T06:49:06;2.07;;;1.47;;
12585;SDS011;6358;50.760;0.282;2024-02-15T06:51:32;3.00;;;1.40;;
12585;SDS011;6358;50.760;0.282;2024-02-15T06:53:58;2.17;;;1.30;;
12585;SDS011;6358;50.760;0.282;2024-02-15T06:56:24;3.57;;;1.40;;
12585;SDS011;6358;50.760;0.282;2024-02-15T06:58:50;2.17;;;1.30;;
12585;SDS011;6358;50.760;0.282;2024-02-15T07:01:18;2.60;;;1.50;;
12585;SDS011;6358;50.760;0.282;2024-02-15T07:03:44;2.93;;;1.40;;
12585;SDS011;6358;50.760;0.282;2024-02-15T07:06:11;1.90;;;1.53;;
12585;SDS011;6358;50.760;0.282;2024-02-15T07:08:40;2.03;;;1.40;;
12585;SDS011;6358;50.760;0.282;2024-02-15T07:11:06;1.70;;;1.27;;
12585;SDS011;6358;50.760;0.282;2024-02-15T07:13:34;1.37;;;1.17;;
12585;SDS011;6358;50.760;0.282;2024-02-15T07:16:01;2.63;;;1.30;;
12585;SDS011;6358;50.760;0.282;2024-02-15T07:18:28;2.17;;;1.23;;
12585;SDS011;6358;50.760;0.282;2024-02-15T07:20:54;2.37;;;1.50;;
12585;SDS011;6358;50.760;0.282;2024-02-15T07:23:23;2.00;;;1.57;;
12585;SDS011;6358;50.760;0.282;2024-02-15T07:25:50;1.87;;;1.40;;
12585;SDS011;6358;50.760;0.282;2024-02-15T07:28:18;2.50;;;1.30;;
12585;SDS011;6358;50.760;0.282;2024-02-15T07:30:45;2.03;;;1.30;;
12585;SDS011;6358;50.760;0.282;2024-02-15T07:33:14;2.20;;;1.40;;
12585;SDS011;6358;50.760;0.282;2024-02-15T07:35:43;1.77;;;1.33;;
12585;SDS011;6358;50.760;0.282;2024-02-15T07:38:09;2.97;;;1.40;;
12585;SDS011;6358;50.760;0.282;2024-02-15T07:40:36;1.90;;;1.30;;
12585;SDS011;6358;50.760;0.282;2024-02-15T07:43:04;2.57;;;1.70;;
12585;SDS011;6358;50.760;0.282;2024-02-15T07:45:34;2.07;;;1.40;;
12585;SDS011;6358;50.760;0.282;2024-02-15T07:48:02;3.13;;;1.73;;
12585;SDS011;6358;50.760;0.282;2024-02-15T07:50:29;1.67;;;1.30;;
12585;SDS011;6358;50.760;0.282;2024-02-15T07:52:55;2.00;;;1.33;;
12585;SDS011;6358;50.760;0.282;2024-02-15T07:55:22;3.10;;;1.70;;
12585;SDS011;6358;50.760;0.282;2024-02-15T07:57:49;1.73;;;1.30;;
12585;SDS011;6358;50.760;0.282;2024-02-15T08:00:16;2.70;;;1.40;;
12585;SDS011;6358;50.760;0.282;2024-02-15T08:02:43;1.67;;;1.50;;
12585;SDS011;6358;50.760;0.282;2024-02-15T08:05:09;3.60;;;1.63;;
12585;SDS011;6358;50.760;0.282;2024-02-15T08:07:37;3.67;;;1.53;;
12585;SDS011;6358;50.760;0.282;2024-02-15T08:10:04;8.00;;;1.73;;
12585;SDS011;6358;50.760;0.282;2024-02-15T08:12:32;1.77;;;1.60;;
12585;SDS011;6358;50.760;0.282;2024-02-15T08:14:58;2.10;;;1.40;;
12585;SDS011;6358;50.760;0.282;2024-02-15T08:17:25;3.13;;;1.50;;
12585;SDS011;6358;50.760;0.282;2024-02-15T08:19:51;2.93;;;1.50;;
12585;SDS011;6358;50.760;0.282;2024-02-15T08:22:17;3.57;;;1.70;;
12585;SDS011;6358;50.760;0.282;2024-02-15T08:24:48;2.10;;;1.60;;
12585;SDS011;6358;50.760;0.282;2024-02-15T08:27:15;7.33;;;1.53;;
12585;SDS011;6358;50.760;0.282;2024-02-15T08:29:41;2.80;;;1.47;;
12585;SDS011;6358;50.760;0.282;2024-02-15T08:32:07;13.63;;;1.77;;
12585;SDS011;6358;50.760;0.282;2024-02-15T08:34:33;5.07;;;1.70;;
12585;SDS011;6358;50.760;0.282;2024-02-15T08:36:59;5.37;;;1.70;;
12585;SDS011;6358;50.760;0.282;2024-02-15T08:39:26;2.57;;;1.57;;
12585;SDS011;6358;50.760;0.282;2024-02-15T08:41:52;5.03;;;1.70;;
12585;SDS011;6358;50.760;0.282;2024-02-15T08:44:18;3.77;;;1.70;;
12585;SDS011;6358;50.760;0.282;2024-02-15T08:46:46;3.90;;;1.60;;
12585;SDS011;6358;50.760;0.282;2024-02-15T08:49:13;3.73;;;1.47;;
12585;SDS011;6358;50.760;0.282;2024-02-15T08:51:39;2.50;;;1.60;;
12585;SDS011;6358;50.760;0.282;2024-02-15T08:54:05;2.13;;;1.40;;
12585;SDS011;6358;50.760;0.282;2024-02-15T08:56:31;3.27;;;1.73;;
12585;SDS011;6358;50.760;0.282;2024-02-15T08:58:58;3.53;;;1.50;;
12585;SDS011;6358;50.760;0.282;2024-02-15T09:01:24;3.40;;;1.67;;
12585;SDS011;6358;50.760;0.282;2024-02-15T09:03:50;3.87;;;1.43;;
12585;SDS011;6358;50.760;0.282;2024-02-15T09:06:16;4.03;;;1.30;;
12585;SDS011;6358;50.760;0.282;2024-02-15T09:08:43;3.23;;;1.80;;
12585;SDS011;6358;50.760;0.282;2024-02-15T09:11:09;8.03;;;5.07;;
12585;SDS011;6358;50.760;0.282;2024-02-15T09:13:37;11.00;;;9.47;;
12585;SDS011;6358;50.760;0.282;2024-02-15T09:16:04;16.40;;;12.43;;
12585;SDS011;6358;50.760;0.282;2024-02-15T09:18:30;17.53;;;12.37;;
12585;SDS011;6358;50.760;0.282;2024-02-15T09:20:58;15.60;;;10.90;;
12585;SDS011;6358;50.760;0.282;2024-02-15T09:23:24;13.47;;;10.53;;
12585;SDS011;6358;50.760;0.282;2024-02-15T09:25:50;14.27;;;10.57;;
12585;SDS011;6358;50.760;0.282;2024-02-15T09:28:19;19.23;;;10.97;;
12585;SDS011;6358;50.760;0.282;2024-02-15T09:30:47;13.73;;;11.40;;
12585;SDS011;6358;50.760;0.282;2024-02-15T09:33:13;14.00;;;11.23;;
12585;SDS011;6358;50.760;0.282;2024-02-15T09:35:39;14.80;;;11.93;;
12585;SDS011;6358;50.760;0.282;2024-02-15T09:38:06;15.83;;;11.87;;
12585;SDS011;6358;50.760;0.282;2024-02-15T09:40:34;14.33;;;11.70;;
12585;SDS011;6358;50.760;0.282;2024-02-15T09:43:01;14.57;;;10.80;;
12585;SDS011;6358;50.760;0.282;2024-02-15T09:45:27;17.00;;;11.53;;
12585;SDS011;6358;50.760;0.282;2024-02-15T09:47:53;15.17;;;11.40;;
12585;SDS011;6358;50.760;0.282;2024-02-15T09:50:19;12.43;;;10.60;;
12585;SDS011;6358;50.760;0.282;2024-02-15T09:52:48;15.30;;;10.43;;
12585;SDS011;6358;50.760;0.282;2024-02-15T09:55:15;14.77;;;8.90;;
12585;SDS011;6358;50.760;0.282;2024-02-15T09:57:42;13.17;;;10.00;;
12585;SDS011;6358;50.760;0.282;2024-02-15T10:00:09;11.60;;;8.90;;
12585;SDS011;6358;50.760;0.282;2024-02-15T10:02:42;13.37;;;9.17;;
12585;SDS011;6358;50.760;0.282;2024-02-15T10:05:09;11.40;;;8.07;;
12585;SDS011;6358;50.760;0.282;2024-02-15T10:07:42;10.13;;;8.70;;
12585;SDS011;6358;50.760;0.282;2024-02-15T10:10:21;10.43;;;8.27;;
12585;SDS011;6358;50.760;0.282;2024-02-15T10:12:47;12.23;;;8.03;;
12585;SDS011;6358;50.760;0.282;2024-02-15T10:15:30;10.97;;;8.23;;
12585;SDS011;6358;50.760;0.282;2024-02-15T10:17:56;10.90;;;7.47;;
12585;SDS011;6358;50.760;0.282;2024-02-15T10:20:23;12.43;;;7.37;;
12585;SDS011;6358;50.760;0.282;2024-02-15T10:23:14;10.93;;;6.57;;
12585;SDS011;6358;50.760;0.282;2024-02-15T10:25:42;13.30;;;7.27;;
12585;SDS011;6358;50.760;0.282;2024-02-15T10:28:10;10.23;;;7.00;;
12585;SDS011;6358;50.760;0.282;2024-02-15T10:30:40;10.43;;;6.07;;
12585;SDS011;6358;50.760;0.282;2024-02-15T10:33:08;10.27;;;6.80;;
12585;SDS011;6358;50.760;0.282;2024-02-15T10:35:38;8.90;;;6.00;;
12585;SDS011;6358;50.760;0.282;2024-02-15T10:38:05;6.37;;;5.60;;
12585;SDS011;6358;50.760;0.282;2024-02-15T10:40:33;8.43;;;6.10;;
12585;SDS011;6358;50.760;0.282;2024-02-15T10:42:59;6.47;;;5.77;;
12585;SDS011;6358;50.760;0.282;2024-02-15T10:45:25;9.40;;;5.70;;
12585;SDS011;6358;50.760;0.282;2024-02-15T10:47:51;7.03;;;5.10;;
12585;SDS011;6358;50.760;0.282;2024-02-15T10:50:18;7.67;;;5.30;;
12585;SDS011;6358;50.760;0.282;2024-02-15T10:55:35;7.13;;;5.40;;
12585;SDS011;6358;50.760;0.282;2024-02-15T10:58:06;7.67;;;5.07;;
12585;SDS011;6358;50.760;0.282;2024-02-15T11:00:33;5.73;;;4.37;;
12585;SDS011;6358;50.760;0.282;2024-02-15T11:03:03;7.13;;;4.83;;
12585;SDS011;6358;50.760;0.282;2024-02-15T11:05:36;6.57;;;4.90;;
12585;SDS011;6358;50.760;0.282;2024-02-15T11:08:03;9.00;;;4.90;;
12585;SDS011;6358;50.760;0.282;2024-02-15T11:10:31;6.90;;;4.30;;
12585;SDS011;6358;50.760;0.282;2024-02-15T11:12:57;9.30;;;4.00;;
12585;SDS011;6358;50.760;0.282;2024-02-15T11:15:40;6.20;;;4.03;;
12585;SDS011;6358;50.760;0.282;2024-02-15T11:18:07;6.33;;;4.10;;
12585;SDS011;6358;50.760;0.282;2024-02-15T11:22:59;5.80;;;3.53;;
12585;SDS011;6358;50.760;0.282;2024-02-15T11:30:50;4.47;;;3.43;;
12585;SDS011;6358;50.760;0.282;2024-02-15T11:36:08;6.23;;;3.27;;
12585;SDS011;6358;50.760;0.282;2024-02-15T11:38:35;4.27;;;3.00;;
12585;SDS011;6358;50.760;0.282;2024-02-15T11:41:02;4.00;;;2.93;;
12585;SDS011;6358;50.760;0.282;2024-02-15T11:43:48;6.07;;;3.10;;
12585;SDS011;6358;50.760;0.282;2024-02-15T11:46:15;5.83;;;2.97;;
12585;SDS011;6358;50.760;0.282;2024-02-15T11:48:43;4.50;;;2.97;;
12585;SDS011;6358;50.760;0.282;2024-02-15T11:51:09;5.40;;;3.03;;
12585;SDS011;6358;50.760;0.282;2024-02-15T11:53:38;4.77;;;2.80;;
12585;SDS011;6358;50.760;0.282;2024-02-15T11:56:04;5.43;;;2.80;;
12585;SDS011;6358;50.760;0.282;2024-02-15T11:58:34;6.73;;;3.07;;
12585;SDS011;6358;50.760;0.282;2024-02-15T12:01:17;4.13;;;2.83;;
12585;SDS011;6358;50.760;0.282;2024-02-15T12:04:02;4.63;;;2.63;;
12585;SDS011;6358;50.760;0.282;2024-02-15T12:06:47;5.73;;;2.97;;
12585;SDS011;6358;50.760;0.282;2024-02-15T12:09:32;3.50;;;2.80;;
12585;SDS011;6358;50.760;0.282;2024-02-15T12:12:17;5.83;;;2.53;;
12585;SDS011;6358;50.760;0.282;2024-02-15T12:15:02;2.97;;;2.37;;
12585;SDS011;6358;50.760;0.282;2024-02-15T12:17:47;3.57;;;2.33;;
12585;SDS011;6358;50.760;0.282;2024-02-15T12:20:32;3.20;;;2.47;;
12585;SDS011;6358;50.760;0.282;2024-02-15T12:22:59;3.43;;;2.57;;
12585;SDS011;6358;50.760;0.282;2024-02-15T12:25:25;5.13;;;2.83;;
12585;SDS011;6358;50.760;0.282;2024-02-15T12:27:55;2.93;;;2.00;;
12585;SDS011;6358;50.760;0.282;2024-02-15T12:30:22;3.60;;;2.50;;
12585;SDS011;6358;50.760;0.282;2024-02-15T12:32:50;5.90;;;2.50;;
12585;SDS011;6358;50.760;0.282;2024-02-15T12:35:20;3.50;;;2.63;;
12585;SDS011;6358;50.760;0.282;2024-02-15T12:38:00;3.53;;;2.63;;
12585;SDS011;6358;50.760;0.282;2024-02-15T12:40:31;3.60;;;2.30;;
12585;SDS011;6358;50.760;0.282;2024-02-15T12:42:57;5.83;;;2.80;;
12585;SDS011;6358;50.760;0.282;2024-02-15T12:45:25;3.83;;;2.10;;
12585;SDS011;6358;50.760;0.282;2024-02-15T12:47:53;3.20;;;2.17;;
12585;SDS011;6358;50.760;0.282;2024-02-15T12:50:20;3.10;;;2.20;;
12585;SDS011;6358;50.760;0.282;2024-02-15T12:52:47;3.93;;;2.07;;
12585;SDS011;6358;50.760;0.282;2024-02-15T12:57:41;3.47;;;2.17;;
12585;SDS011;6358;50.760;0.282;2024-02-15T13:00:10;3.87;;;2.03;;
12585;SDS011;6358;50.760;0.282;2024-02-15T13:02:38;4.03;;;2.30;;
12585;SDS011;6358;50.760;0.282;2024-02-15T13:05:05;4.37;;;2.07;;
12585;SDS011;6358;50.760;0.282;2024-02-15T13:07:35;4.00;;;2.10;;
12585;SDS011;6358;50.760;0.282;2024-02-15T13:10:02;4.70;;;2.20;;
12585;SDS011;6358;50.760;0.282;2024-02-15T13:12:32;3.37;;;2.10;;
12585;SDS011;6358;50.760;0.282;2024-02-15T13:15:00;4.23;;;1.77;;
12585;SDS011;6358;50.760;0.282;2024-02-15T13:17:28;4.77;;;2.20;;
12585;SDS011;6358;50.760;0.282;2024-02-15T13:19:56;4.33;;;2.20;;
12585;SDS011;6358;50.760;0.282;2024-02-15T13:22:29;3.23;;;1.90;;
12585;SDS011;6358;50.760;0.282;2024-02-15T13:24:56;5.13;;;2.17;;
12585;SDS011;6358;50.760;0.282;2024-02-15T13:27:22;4.17;;;2.03;;
12585;SDS011;6358;50.760;0.282;2024-02-15T13:29:49;3.17;;;2.07;;
12585;SDS011;6358;50.760;0.282;2024-02-15T13:32:15;3.87;;;1.97;;
12585;SDS011;6358;50.760;0.282;2024-02-15T13:34:42;4.20;;;1.70;;
12585;SDS011;6358;50.760;0.282;2024-02-15T13:37:10;4.67;;;2.20;;
12585;SDS011;6358;50.760;0.282;2024-02-15T13:39:39;4.03;;;1.90;;
12585;SDS011;6358;50.760;0.282;2024-02-15T13:42:10;3.37;;;2.20;;
12585;SDS011;6358;50.760;0.282;2024-02-15T13:44:36;7.27;;;1.80;;
12585;SDS011;6358;50.760;0.282;2024-02-15T13:47:03;4.67;;;1.90;;
12585;SDS011;6358;50.760;0.282;2024-02-15T13:49:30;4.03;;;2.03;;
12585;SDS011;6358;50.760;0.282;2024-02-15T13:51:57;6.07;;;2.03;;
12585;SDS011;6358;50.760;0.282;2024-02-15T13:54:27;4.97;;;2.07;;
12585;SDS011;6358;50.760;0.282;2024-02-15T13:56:54;1.67;;;1.53;;
12585;SDS011;6358;50.760;0.282;2024-02-15T13:59:21;2.53;;;1.80;;
12585;SDS011;6358;50.760;0.282;2024-02-15T14:01:48;2.80;;;1.83;;
12585;SDS011;6358;50.760;0.282;2024-02-15T14:04:14;2.33;;;1.80;;
12585;SDS011;6358;50.760;0.282;2024-02-15T14:06:44;3.40;;;2.13;;
12585;SDS011;6358;50.760;0.282;2024-02-15T14:09:10;5.83;;;1.80;;
12585;SDS011;6358;50.760;0.282;2024-02-15T14:11:37;2.50;;;1.73;;
12585;SDS011;6358;50.760;0.282;2024-02-15T14:14:03;2.60;;;1.97;;
12585;SDS011;6358;50.760;0.282;2024-02-15T14:16:30;2.50;;;1.70;;
12585;SDS011;6358;50.760;0.282;2024-02-15T14:18:56;4.00;;;2.00;;
12585;SDS011;6358;50.760;0.282;2024-02-15T14:21:22;5.00;;;1.93;;
12585;SDS011;6358;50.760;0.282;2024-02-15T14:23:50;4.33;;;2.00;;
12585;SDS011;6358;50.760;0.282;2024-02-15T14:26:16;3.20;;;1.97;;
12585;SDS011;6358;50.760;0.282;2024-02-15T14:28:43;3.30;;;1.80;;
12585;SDS011;6358;50.760;0.282;2024-02-15T14:31:12;2.73;;;1.97;;
12585;SDS011;6358;50.760;0.282;2024-02-15T14:33:56;4.57;;;1.90;;
12585;SDS011;6358;50.760;0.282;2024-02-15T14:36:23;5.73;;;1.80;;
12585;SDS011;6358;50.760;0.282;2024-02-15T14:38:49;2.77;;;1.80;;
12585;SDS011;6358;50.760;0.282;2024-02-15T14:41:16;2.43;;;1.73;;
12585;SDS011;6358;50.760;0.282;2024-02-15T14:43:42;3.40;;;1.90;;
12585;SDS011;6358;50.760;0.282;2024-02-15T14:46:09;3.27;;;1.80;;
12585;SDS011;6358;50.760;0.282;2024-02-15T14:48:35;2.47;;;1.60;;
12585;SDS011;6358;50.760;0.282;2024-02-15T14:51:04;4.70;;;1.80;;
12585;SDS011;6358;50.760;0.282;2024-02-15T14:53:31;3.87;;;1.70;;
12585;SDS011;6358;50.760;0.282;2024-02-15T14:55:58;4.63;;;1.60;;
12585;SDS011;6358;50.760;0.282;2024-02-15T14:58:24;8.07;;;2.00;;
12585;SDS011;6358;50.760;0.282;2024-02-15T15:00:50;6.20;;;1.97;;
12585;SDS011;6358;50.760;0.282;2024-02-15T15:03:17;4.70;;;1.67;;
12585;SDS011;6358;50.760;0.282;2024-02-15T15:05:45;5.37;;;1.60;;
12585;SDS011;6358;50.760;0.282;2024-02-15T15:08:29;4.53;;;1.93;;
12585;SDS011;6358;50.760;0.282;2024-02-15T15:11:14;5.00;;;2.00;;
12585;SDS011;6358;50.760;0.282;2024-02-15T15:13:59;1.80;;;1.40;;
12585;SDS011;6358;50.760;0.282;2024-02-15T15:16:25;2.30;;;1.53;;
12585;SDS011;6358;50.760;0.282;2024-02-15T15:18:53;5.67;;;2.07;;
12585;SDS011;6358;50.760;0.282;2024-02-15T15:21:19;2.97;;;1.50;;